createdAt,value
2018-08-12T00:02:48.951Z,50.28
2018-08-12T00:05:52.442Z,51.23
2018-08-12T00:08:55.959Z,50.97
2018-08-12T00:11:59.152Z,51.44
2018-08-12T00:15:02.481Z,51.29
2018-08-12T00:18:05.945Z,51.10
2018-08-12T00:21:10.155Z,51.50
2018-08-12T00:24:13.530Z,51.58
2018-08-12T00:27:16.750Z,51.74
2018-08-12T00:30:20.481Z,51.55
2018-08-12T00:33:23.790Z,51.57
2018-08-12T00:36:27.122Z,51.59
2018-08-12T00:39:31.491Z,51.86
2018-08-12T00:42:36.091Z,51.85
2018-08-12T00:45:40.239Z,52.22
2018-08-12T00:48:44.410Z,51.83
2018-08-12T00:51:47.673Z,52.33
2018-08-12T00:54:50.818Z,52.41
2018-08-12T00:57:54.180Z,53.26
2018-08-12T01:00:57.418Z,53.35
2018-08-12T01:04:00.650Z,53.66
2018-08-12T01:07:03.938Z,54.19
2018-08-12T01:10:07.560Z,54.61
2018-08-12T01:13:10.843Z,54.32
2018-08-12T01:16:14.158Z,53.29
2018-08-12T01:19:17.440Z,53.44
2018-08-12T01:22:20.743Z,54.02
2018-08-12T01:25:24.107Z,53.21
2018-08-12T01:28:27.661Z,52.62
2018-08-12T01:31:30.923Z,53.00
2018-08-12T01:34:34.231Z,53.03
2018-08-12T01:37:37.538Z,52.59
2018-08-12T01:40:41.542Z,52.30
2018-08-12T01:43:44.833Z,52.19
2018-08-12T01:46:48.031Z,52.93
2018-08-12T01:49:52.367Z,53.19
2018-08-12T01:52:55.626Z,53.08
2018-08-12T01:55:58.955Z,52.72
2018-08-12T01:59:02.227Z,53.91
2018-08-12T02:02:05.447Z,53.39
2018-08-12T02:05:09.386Z,53.77
2018-08-12T02:08:13.347Z,53.01
2018-08-12T02:11:16.663Z,53.34
2018-08-12T02:14:19.947Z,53.48
2018-08-12T02:17:23.136Z,53.58
2018-08-12T02:20:26.257Z,53.61
2018-08-12T02:23:29.574Z,53.73
2018-08-12T02:26:32.852Z,54.22
2018-08-12T02:29:36.131Z,54.56
2018-08-12T02:32:42.332Z,54.99
2018-08-12T02:35:45.619Z,54.71
2018-08-12T02:38:49.959Z,54.35
2018-08-12T02:41:53.216Z,54.79
2018-08-12T02:44:56.405Z,55.44
2018-08-12T02:47:59.751Z,54.42
2018-08-12T02:51:03.009Z,54.89
2018-08-12T02:54:06.409Z,55.15
2018-08-12T02:57:10.227Z,55.75
2018-08-12T03:00:13.959Z,54.60
2018-08-12T03:03:17.239Z,55.95
2018-08-12T03:06:21.560Z,55.67
2018-08-12T03:09:24.837Z,56.35
2018-08-12T03:12:28.032Z,56.07
2018-08-12T03:15:31.371Z,57.02
2018-08-12T03:18:34.650Z,55.88
2018-08-12T03:21:37.922Z,56.05
2018-08-12T03:24:41.963Z,56.10
2018-08-12T03:27:45.277Z,56.23
2018-08-12T03:30:48.579Z,56.36
2018-08-12T03:33:51.855Z,55.63
2018-08-12T03:36:55.160Z,56.56
2018-08-12T03:39:58.450Z,55.63
2018-08-12T03:43:01.740Z,55.76
2018-08-12T03:46:04.926Z,56.86
2018-08-12T03:49:08.114Z,55.99
2018-08-12T03:52:14.459Z,57.15
2018-08-12T03:55:17.687Z,57.40
2018-08-12T03:58:20.918Z,57.68
2018-08-12T04:01:25.051Z,57.16
2018-08-12T04:04:29.355Z,57.10
2018-08-12T04:07:33.112Z,56.68
2018-08-12T04:10:36.412Z,57.46
2018-08-12T04:13:41.153Z,57.78
2018-08-12T04:16:49.913Z,57.86
2018-08-12T04:19:58.624Z,57.37
2018-08-12T04:23:01.942Z,57.73
2018-08-12T04:26:05.209Z,57.41
2018-08-12T04:29:08.498Z,56.95
2018-08-12T04:32:12.032Z,57.77
2018-08-12T04:35:15.377Z,57.84
2018-08-12T04:38:18.828Z,57.45
2018-08-12T04:41:22.134Z,57.24
2018-08-12T04:44:25.421Z,56.81
2018-08-12T04:47:28.742Z,56.76
2018-08-12T04:50:32.006Z,56.98
2018-08-12T04:53:35.271Z,58.11
2018-08-12T04:56:38.623Z,57.66
2018-08-12T04:59:41.732Z,58.11
2018-08-12T05:02:46.139Z,57.49
2018-08-12T05:05:49.312Z,57.23
2018-08-12T05:08:53.432Z,57.04
2018-08-12T05:11:56.552Z,56.37
2018-08-12T05:14:59.811Z,56.08
2018-08-12T05:18:03.109Z,56.41
2018-08-12T05:21:06.319Z,55.99
2018-08-12T05:24:09.588Z,55.67
2018-08-12T05:27:12.803Z,55.29
2018-08-12T05:30:16.111Z,54.99
2018-08-12T05:33:19.399Z,54.95
2018-08-12T05:36:23.676Z,54.73
2018-08-12T05:39:26.944Z,54.63
2018-08-12T05:42:30.346Z,54.40
2018-08-12T05:45:33.532Z,54.54
2018-08-12T05:48:36.811Z,53.98
2018-08-12T05:51:40.121Z,54.16
2018-08-12T05:54:43.265Z,53.45
2018-08-12T05:57:46.628Z,53.03
2018-08-12T06:00:50.642Z,52.68
2018-08-12T06:03:55.944Z,52.45
2018-08-12T06:06:59.183Z,52.22
2018-08-12T06:10:02.449Z,52.06
2018-08-12T06:13:05.980Z,51.86
2018-08-12T06:16:09.240Z,51.24
2018-08-12T06:19:12.568Z,50.99
2018-08-12T06:22:15.869Z,50.83
2018-08-12T06:25:19.420Z,50.18
2018-08-12T06:28:23.187Z,50.43
2018-08-12T06:31:26.576Z,50.17
2018-08-12T06:34:29.916Z,49.42
2018-08-12T06:37:33.142Z,49.75
2018-08-12T06:40:36.467Z,49.42
2018-08-12T06:43:39.768Z,49.03
2018-08-12T06:46:42.922Z,48.83
2018-08-12T06:49:46.273Z,48.13
2018-08-12T06:52:49.523Z,48.30
2018-08-12T06:55:53.559Z,47.62
2018-08-12T06:58:56.830Z,47.84
2018-08-12T07:02:00.156Z,47.70
2018-08-12T07:05:03.656Z,47.20
2018-08-12T07:08:06.935Z,47.12
2018-08-12T07:11:10.228Z,46.74
2018-08-12T07:14:13.589Z,46.43
2018-08-12T07:17:16.903Z,46.17
2018-08-12T07:20:21.396Z,45.82
2018-08-12T07:23:24.794Z,46.32
2018-08-12T07:26:28.094Z,46.24
2018-08-12T07:29:31.394Z,45.77
2018-08-12T07:32:34.632Z,46.25
2018-08-12T07:35:37.947Z,45.99
2018-08-12T07:38:41.312Z,45.33
2018-08-12T07:41:44.560Z,44.85
2018-08-12T07:44:48.445Z,44.99
2018-08-12T07:47:53.108Z,42.82
2018-08-12T07:50:56.400Z,43.77
2018-08-12T07:53:59.799Z,42.83
2018-08-12T07:57:03.084Z,43.87
2018-08-12T08:00:08.608Z,42.41
2018-08-12T08:03:11.852Z,42.04
2018-08-12T08:06:15.265Z,42.19
2018-08-12T08:09:18.707Z,40.76
2018-08-12T08:12:22.605Z,41.75
2018-08-12T08:15:25.929Z,41.92
2018-08-12T08:18:29.238Z,40.19
2018-08-12T08:21:33.485Z,39.42
2018-08-12T08:24:36.759Z,40.54
2018-08-12T08:30:42.526Z,39.45
2018-08-12T08:33:45.828Z,38.35
2018-08-12T08:36:49.111Z,37.78
2018-08-12T08:39:53.461Z,37.43
2018-08-12T08:42:56.720Z,37.91
2018-08-12T08:45:59.979Z,37.38
2018-08-12T08:49:03.458Z,36.13
2018-08-12T08:52:06.770Z,35.41
2018-08-12T08:55:11.139Z,35.78
2018-08-12T08:58:14.374Z,35.22
2018-08-12T09:01:17.692Z,35.25
2018-08-12T09:04:22.212Z,35.27
2018-08-12T09:07:33.189Z,34.67
2018-08-12T09:10:36.480Z,33.95
2018-08-12T09:13:39.794Z,34.37
2018-08-12T09:16:43.163Z,34.21
2018-08-12T09:19:46.490Z,33.55
2018-08-12T09:22:49.778Z,34.63
2018-08-12T09:25:53.949Z,34.14
2018-08-12T09:28:58.247Z,34.26
2018-08-12T09:32:01.623Z,33.97
2018-08-12T09:35:05.196Z,34.20
2018-08-12T09:38:09.403Z,34.22
2018-08-12T09:41:12.751Z,33.84
2018-08-12T09:44:15.919Z,33.11
2018-08-12T09:47:19.205Z,33.32
2018-08-12T09:50:22.451Z,32.91
2018-08-12T09:53:26.200Z,32.94
2018-08-12T09:56:30.397Z,32.70
2018-08-12T09:59:33.751Z,32.88
2018-08-12T10:02:37.055Z,33.80
2018-08-12T10:05:40.358Z,33.16
2018-08-12T10:08:43.626Z,32.44
2018-08-12T10:11:47.827Z,32.33
2018-08-12T10:14:51.143Z,31.15
2018-08-12T10:17:56.867Z,31.32
2018-08-12T10:21:00.209Z,31.15
2018-08-12T10:24:03.518Z,30.68
2018-08-12T10:27:06.888Z,31.44
2018-08-12T10:30:12.568Z,31.79
2018-08-12T10:33:15.811Z,31.11
2018-08-12T10:36:19.122Z,30.75
2018-08-12T10:39:22.458Z,29.97
2018-08-12T10:42:25.716Z,29.20
2018-08-12T10:45:28.851Z,29.24
2018-08-12T10:48:32.695Z,30.03
2018-08-12T10:51:35.955Z,30.20
2018-08-12T10:54:39.215Z,31.22
2018-08-12T10:57:43.943Z,29.60
2018-08-12T11:00:47.280Z,28.85
2018-08-12T11:03:50.742Z,28.67
2018-08-12T11:06:55.037Z,27.77
2018-08-12T11:09:58.293Z,27.67
2018-08-12T11:13:01.579Z,27.56
2018-08-12T11:16:04.896Z,27.24
2018-08-12T11:19:08.162Z,26.70
2018-08-12T11:22:11.465Z,27.30
2018-08-12T11:25:14.788Z,26.83
2018-08-12T11:28:18.063Z,27.71
2018-08-12T11:31:21.894Z,26.93
2018-08-12T11:34:25.149Z,26.74
2018-08-12T11:37:28.359Z,26.65
2018-08-12T11:40:31.635Z,27.55
2018-08-12T11:43:34.959Z,26.76
2018-08-12T11:46:38.259Z,27.55
2018-08-12T11:49:41.551Z,27.48
2018-08-12T11:52:45.301Z,28.06
2018-08-12T11:55:48.648Z,27.47
2018-08-12T11:58:57.622Z,27.04
2018-08-12T12:02:00.980Z,26.52
2018-08-12T12:05:06.061Z,26.05
2018-08-12T12:08:09.331Z,26.56
2018-08-12T12:11:12.727Z,26.21
2018-08-12T12:14:16.017Z,26.17
2018-08-12T12:17:19.308Z,26.47
2018-08-12T12:20:22.538Z,25.41
2018-08-12T12:23:25.840Z,26.01
2018-08-12T12:26:29.095Z,26.42
2018-08-12T12:29:32.300Z,26.45
2018-08-12T12:32:36.356Z,26.13
2018-08-12T12:35:39.705Z,26.03
2018-08-12T12:38:42.911Z,26.05
2018-08-12T12:41:46.197Z,25.87
2018-08-12T12:44:49.512Z,25.62
2018-08-12T12:47:52.864Z,25.17
2018-08-12T12:50:56.192Z,25.83
2018-08-12T12:53:59.540Z,25.51
2018-08-12T12:57:02.816Z,25.83
2018-08-12T13:00:07.908Z,24.55
2018-08-12T13:03:11.291Z,24.36
2018-08-12T13:06:14.516Z,24.65
2018-08-12T13:09:17.851Z,24.17
2018-08-12T13:12:21.292Z,25.53
2018-08-12T13:15:24.518Z,24.91
2018-08-12T13:18:27.859Z,24.44
2018-08-12T13:21:31.256Z,23.84
2018-08-12T13:24:35.249Z,24.78
2018-08-12T13:27:38.595Z,24.31
2018-08-12T13:30:41.834Z,24.78
2018-08-12T13:33:45.163Z,24.29
2018-08-12T13:36:48.309Z,24.01
2018-08-12T13:39:51.496Z,23.73
2018-08-12T13:42:55.844Z,24.03
2018-08-12T13:45:58.998Z,23.59
2018-08-12T13:49:02.577Z,23.59
2018-08-12T13:52:05.847Z,23.35
2018-08-12T13:55:10.171Z,22.43
2018-08-12T13:58:13.390Z,21.69
2018-08-12T14:01:16.654Z,22.79
2018-08-12T14:04:19.940Z,22.57
2018-08-12T14:07:23.151Z,23.18
2018-08-12T14:10:26.443Z,23.02
2018-08-12T14:13:29.771Z,23.26
2018-08-12T14:16:33.020Z,22.07
2018-08-12T14:19:37.001Z,22.50
2018-08-12T14:22:41.496Z,22.92
2018-08-12T14:25:44.781Z,22.61
2018-08-12T14:28:48.069Z,21.65
2018-08-12T14:31:51.490Z,21.43
2018-08-12T14:34:55.259Z,21.80
2018-08-12T14:37:58.592Z,21.90
2018-08-12T14:41:03.358Z,22.39
2018-08-12T14:44:06.831Z,21.70
2018-08-12T14:47:10.121Z,21.82
2018-08-12T14:50:17.178Z,21.49
2018-08-12T14:53:20.592Z,21.20
2018-08-12T14:56:23.924Z,20.94
2018-08-12T14:59:27.172Z,19.70
2018-08-12T15:02:30.930Z,19.48
2018-08-12T15:05:34.280Z,20.30
2018-08-12T15:08:37.490Z,20.17
2018-08-12T15:11:40.932Z,19.73
2018-08-12T15:14:44.401Z,19.95
2018-08-12T15:17:48.975Z,20.00
2018-08-12T15:20:53.279Z,19.93
2018-08-12T15:23:56.679Z,20.32
2018-08-12T15:27:00.965Z,19.99
2018-08-12T15:30:05.120Z,20.04
2018-08-12T15:33:08.484Z,19.69
2018-08-12T15:36:11.840Z,19.84
2018-08-12T15:39:15.147Z,20.40
2018-08-12T15:42:20.690Z,19.71
2018-08-12T15:45:24.032Z,19.92
2018-08-12T15:48:27.295Z,20.54
2018-08-12T15:51:31.540Z,19.94
2018-08-12T15:54:34.840Z,20.41
2018-08-12T15:57:38.394Z,20.15
2018-08-12T16:00:41.631Z,19.77
2018-08-12T16:03:46.050Z,19.04
2018-08-12T16:06:49.485Z,20.16
2018-08-12T16:09:52.792Z,19.99
2018-08-12T16:12:56.055Z,19.29
2018-08-12T16:15:59.293Z,19.54
2018-08-12T16:19:02.591Z,19.71
2018-08-12T16:22:07.895Z,20.02
2018-08-12T16:25:14.176Z,19.83
2018-08-12T16:28:17.443Z,19.94
2018-08-12T16:31:20.862Z,19.73
2018-08-12T16:34:24.067Z,19.54
2018-08-12T16:37:27.407Z,19.80
2018-08-12T16:40:30.635Z,20.09
2018-08-12T16:43:33.927Z,19.79
2018-08-12T16:46:37.260Z,19.59
2018-08-12T16:49:40.584Z,20.48
2018-08-12T16:52:44.380Z,20.59
2018-08-12T16:55:47.656Z,20.16
2018-08-12T16:58:50.949Z,20.97
2018-08-12T17:01:54.313Z,20.78
2018-08-12T17:04:59.039Z,21.70
2018-08-12T17:08:04.640Z,21.71
2018-08-12T17:11:07.927Z,22.60
2018-08-12T17:14:11.515Z,22.09
2018-08-12T17:17:14.841Z,22.55
2018-08-12T17:20:19.434Z,22.67
2018-08-12T17:23:22.805Z,22.56
2018-08-12T17:26:26.336Z,22.13
2018-08-12T17:29:29.676Z,22.41
2018-08-12T17:32:33.726Z,23.30
2018-08-12T17:35:37.030Z,23.86
2018-08-12T17:38:41.486Z,24.23
2018-08-12T17:41:44.754Z,23.87
2018-08-12T17:44:48.867Z,23.88
2018-08-12T17:47:52.210Z,24.23
2018-08-12T17:50:55.605Z,24.58
2018-08-12T17:54:00.002Z,24.91
2018-08-12T17:57:03.388Z,24.98
2018-08-12T18:00:09.628Z,25.00
2018-08-12T18:03:12.865Z,25.36
2018-08-12T18:06:16.190Z,25.84
2018-08-12T18:09:19.787Z,26.19
2018-08-12T18:12:23.343Z,26.54
2018-08-12T18:15:28.710Z,26.81
2018-08-12T18:18:32.199Z,26.94
2018-08-12T18:21:36.544Z,26.65
2018-08-12T18:24:39.912Z,27.33
2018-08-12T18:27:43.282Z,27.78
2018-08-12T18:30:46.661Z,27.57
2018-08-12T18:33:50.003Z,28.34
2018-08-12T18:36:53.333Z,28.67
2018-08-12T18:39:56.717Z,29.32
2018-08-12T18:43:01.078Z,29.78
2018-08-12T18:46:05.754Z,30.24
2018-08-12T18:49:09.077Z,30.98
2018-08-12T18:52:12.365Z,32.05
2018-08-12T18:55:15.658Z,31.79
2018-08-12T18:58:20.986Z,32.70
2018-08-12T19:01:24.615Z,32.89
2018-08-12T19:04:27.921Z,32.83
2018-08-12T19:07:31.179Z,33.36
2018-08-12T19:10:35.199Z,33.92
2018-08-12T19:13:38.387Z,34.22
2018-08-12T19:16:41.818Z,34.39
2018-08-12T19:19:45.866Z,34.86
2018-08-12T19:22:49.102Z,35.81
2018-08-12T19:25:52.329Z,36.63
2018-08-12T19:28:55.819Z,36.75
2018-08-12T19:31:59.045Z,37.09
2018-08-12T19:35:02.351Z,37.22
2018-08-12T19:38:05.869Z,37.54
2018-08-12T19:41:09.558Z,38.78
2018-08-12T19:44:12.879Z,38.39
2018-08-12T19:47:16.179Z,38.07
2018-08-12T19:50:20.632Z,37.96
2018-08-12T19:53:23.888Z,38.82
2018-08-12T19:56:27.201Z,39.07
2018-08-12T19:59:30.441Z,39.67
2018-08-12T20:02:33.848Z,39.67
2018-08-12T20:05:37.196Z,40.31
2018-08-12T20:08:40.423Z,40.33
2018-08-12T20:11:43.803Z,40.75
2018-08-12T20:14:47.062Z,41.79
2018-08-12T20:17:51.247Z,42.46
2018-08-12T20:20:54.473Z,42.41
2018-08-12T20:23:57.963Z,42.07
2018-08-12T20:27:01.280Z,43.19
2018-08-12T20:30:05.268Z,43.73
2018-08-12T20:33:08.595Z,43.86
2018-08-12T20:36:11.895Z,43.26
2018-08-12T20:39:15.191Z,41.42
2018-08-12T20:42:19.502Z,41.01
2018-08-12T20:45:22.755Z,40.50
2018-08-12T20:48:28.048Z,40.46
2018-08-12T20:51:33.411Z,39.40
2018-08-12T20:54:37.216Z,39.00
2018-08-12T20:57:41.503Z,39.24
2018-08-12T21:00:44.869Z,39.12
2018-08-12T21:03:48.732Z,38.68
2018-08-12T21:06:52.028Z,39.69
2018-08-12T21:09:55.346Z,38.70
2018-08-12T21:12:58.565Z,38.92
2018-08-12T21:16:01.931Z,38.57
2018-08-12T21:19:05.736Z,39.22
2018-08-12T21:22:09.008Z,38.71
2018-08-12T21:25:12.353Z,38.61
2018-08-12T21:28:15.604Z,38.90
2018-08-12T21:31:19.286Z,39.64
2018-08-12T21:34:22.640Z,40.17
2018-08-12T21:37:26.001Z,39.62
2018-08-12T21:40:29.300Z,40.39
2018-08-12T21:43:32.629Z,40.22
2018-08-12T21:46:35.776Z,39.91
2018-08-12T21:49:40.136Z,40.01
2018-08-12T21:52:43.656Z,39.92
2018-08-12T21:55:46.917Z,40.25
2018-08-12T21:58:50.946Z,40.73
2018-08-12T22:01:54.140Z,40.94
2018-08-12T22:04:57.453Z,41.07
2018-08-12T22:08:04.959Z,40.29
2018-08-12T22:11:08.380Z,41.27
2018-08-12T22:14:12.124Z,41.33
2018-08-12T22:17:15.466Z,41.23
2018-08-12T22:20:19.535Z,41.59
2018-08-12T22:23:22.864Z,41.32
2018-08-12T22:26:27.751Z,42.36
2018-08-12T22:29:31.211Z,42.00
2018-08-12T22:32:34.526Z,41.70
2018-08-12T22:35:38.205Z,41.75
2018-08-12T22:38:41.675Z,42.50
2018-08-12T22:41:45.028Z,42.26
2018-08-12T22:44:48.822Z,42.89
2018-08-12T22:47:52.487Z,42.61
2018-08-12T22:50:55.852Z,42.69
2018-08-12T22:54:00.112Z,43.07
2018-08-12T22:57:03.666Z,42.68
2018-08-12T23:00:12.183Z,43.29
2018-08-12T23:03:15.588Z,43.34
2018-08-12T23:06:19.966Z,43.25
2018-08-12T23:09:23.309Z,43.25
2018-08-12T23:12:26.610Z,43.61
2018-08-12T23:16:12.298Z,43.62
2018-08-12T23:19:15.609Z,43.68
2018-08-12T23:22:19.672Z,43.51
2018-08-12T23:25:22.914Z,43.73
2018-08-12T23:28:26.220Z,44.63
2018-08-12T23:31:30.759Z,44.82
2018-08-12T23:34:34.008Z,44.56
2018-08-12T23:37:38.349Z,45.28
2018-08-12T23:40:41.867Z,45.10
2018-08-12T23:43:45.277Z,44.94
2018-08-12T23:46:48.967Z,45.61
2018-08-12T23:49:58.933Z,45.53
2018-08-12T23:53:02.313Z,45.94
2018-08-12T23:56:05.664Z,45.44
2018-08-12T23:59:08.948Z,46.25
